Time;durP1;ratioP1;P1;durP2;ratioP2;P2;SDS_P1;SDS_P2;PMS_P1;PMS_P2;Temp;Humidity;BMP_temperature;BMP_pressure;BME280_temperature;BME280_humidity;BME280_pressure;Samples;Min_cycle;Max_cycle;Signal;HPM_P1;HPM_P2
2023/04/21 00:01:25;;;;;;;16.90;10.40;;;7.80;99.90;;;;;;4873255;29;20057;-79
2023/04/21 00:03:51;;;;;;;20.20;9.85;;;7.80;99.90;;;;;;4843380;29;20045;-77
2023/04/21 00:06:21;;;;;;;20.25;10.80;;;7.90;99.90;;;;;;4843639;29;20046;-78
2023/04/21 00:08:48;;;;;;;17.05;10.60;;;7.90;99.90;;;;;;4846885;29;20795;-78
2023/04/21 00:11:15;;;;;;;17.88;10.48;;;7.80;99.90;;;;;;4874002;29;20061;-78
2023/04/21 00:13:42;;;;;;;18.20;9.80;;;7.80;99.90;;;;;;4858535;29;20050;-78
2023/04/21 00:16:09;;;;;;;19.55;10.32;;;7.80;99.90;;;;;;4858566;29;20538;-78
2023/04/21 00:18:36;;;;;;;17.27;10.65;;;7.80;99.90;;;;;;4875763;29;20046;-78
2023/04/21 00:21:03;;;;;;;21.33;10.65;;;7.80;99.90;;;;;;4861711;29;20572;-78
2023/04/21 00:23:30;;;;;;;16.85;9.85;;;7.80;99.90;;;;;;4876628;29;20491;-78
2023/04/21 00:25:56;;;;;;;18.08;9.75;;;7.80;99.90;;;;;;4877040;29;20447;-78
2023/04/21 00:28:23;;;;;;;16.83;10.10;;;7.70;99.90;;;;;;4876662;29;20044;-78
2023/04/21 00:30:50;;;;;;;17.48;9.77;;;7.70;99.90;;;;;;4861256;29;20052;-78
2023/04/21 00:33:16;;;;;;;18.08;10.40;;;7.70;99.90;;;;;;4892051;29;20045;-78
2023/04/21 00:35:43;;;;;;;18.60;9.30;;;7.70;99.90;;;;;;4876415;29;20045;-78
2023/04/21 00:38:10;;;;;;;17.45;10.43;;;7.70;99.90;;;;;;4876690;29;20041;-79
2023/04/21 00:40:36;;;;;;;22.33;10.27;;;7.70;99.90;;;;;;4857746;29;20042;-78
2023/04/21 00:43:06;;;;;;;18.70;9.63;;;7.70;99.90;;;;;;4842980;29;20519;-78
2023/04/21 00:45:33;;;;;;;18.40;10.88;;;7.60;99.90;;;;;;4858409;29;20081;-78
2023/04/21 00:48:00;;;;;;;16.38;9.85;;;7.60;99.90;;;;;;4858456;29;20089;-79
2023/04/21 00:50:27;;;;;;;20.75;10.20;;;7.60;99.90;;;;;;4843120;29;20050;-78
2023/04/21 00:52:54;;;;;;;16.08;9.73;;;7.60;99.90;;;;;;4861391;29;20056;-78
2023/04/21 00:55:21;;;;;;;19.92;9.65;;;7.60;99.90;;;;;;4876288;29;20418;-79
2023/04/21 00:57:51;;;;;;;18.00;10.10;;;7.60;99.90;;;;;;4876287;29;20053;-79
2023/04/21 01:00:18;;;;;;;18.27;9.40;;;7.60;99.90;;;;;;4891098;29;20551;-79
2023/04/21 01:02:45;;;;;;;17.50;9.68;;;7.60;99.90;;;;;;4860895;29;20037;-79
2023/04/21 01:05:11;;;;;;;17.02;9.70;;;7.50;99.90;;;;;;4876524;29;20037;-79
2023/04/21 01:07:38;;;;;;;16.73;9.20;;;7.50;99.90;;;;;;4875923;29;20038;-79
2023/04/21 01:10:06;;;;;;;18.60;10.07;;;7.50;99.90;;;;;;4861120;29;20066;-78
2023/04/21 01:12:40;;;;;;;20.27;9.98;;;7.50;99.90;;;;;;4873111;29;20116;-79
2023/04/21 01:15:07;;;;;;;16.25;9.48;;;7.50;99.90;;;;;;4858169;29;20053;-79
2023/04/21 01:17:37;;;;;;;16.27;9.57;;;7.50;99.90;;;;;;4842851;29;20085;-79
2023/04/21 01:20:09;;;;;;;16.33;9.25;;;7.50;99.90;;;;;;4858117;29;20053;-79
2023/04/21 01:22:41;;;;;;;14.95;9.38;;;7.50;99.90;;;;;;4868770;29;20045;-79
2023/04/21 01:25:08;;;;;;;17.40;9.95;;;7.40;99.90;;;;;;4857687;29;20415;-79
2023/04/21 01:27:35;;;;;;;21.65;9.90;;;7.40;99.90;;;;;;4872900;29;20038;-79
2023/04/21 01:30:03;;;;;;;20.25;9.98;;;7.40;99.90;;;;;;4842272;29;20583;-79
2023/04/21 01:32:30;;;;;;;19.00;9.52;;;7.40;99.90;;;;;;4884027;29;20057;-79
2023/04/21 01:34:58;;;;;;;16.77;9.90;;;7.30;99.90;;;;;;4845860;29;20088;-79
2023/04/21 01:37:28;;;;;;;17.17;9.70;;;7.30;99.90;;;;;;4860811;29;20475;-79
2023/04/21 01:39:56;;;;;;;16.83;9.38;;;7.40;99.90;;;;;;4875738;29;20081;-79
2023/04/21 01:42:25;;;;;;;23.38;10.50;;;7.30;99.90;;;;;;4876232;29;20049;-79
2023/04/21 01:44:55;;;;;;;17.15;10.30;;;7.30;99.90;;;;;;4891014;29;20109;-79
2023/04/21 01:47:22;;;;;;;20.25;10.02;;;7.30;99.90;;;;;;4861337;29;20049;-79
2023/04/21 01:49:49;;;;;;;22.10;9.93;;;7.30;99.90;;;;;;4875966;29;20053;-79
2023/04/21 01:52:16;;;;;;;17.33;10.13;;;7.20;99.90;;;;;;4891060;29;20045;-79
2023/04/21 01:54:43;;;;;;;17.10;9.65;;;7.20;99.90;;;;;;4891293;29;20049;-79
2023/04/21 01:57:10;;;;;;;19.25;10.32;;;7.20;99.90;;;;;;4875563;29;20046;-79
2023/04/21 01:59:36;;;;;;;16.67;10.02;;;7.20;99.90;;;;;;4875438;29;20057;-79
2023/04/21 02:02:03;;;;;;;18.83;10.50;;;7.10;99.90;;;;;;4875366;29;20053;-79
2023/04/21 02:04:30;;;;;;;15.18;9.80;;;7.20;99.90;;;;;;4890952;29;20455;-79
2023/04/21 02:06:57;;;;;;;17.70;10.73;;;7.20;99.90;;;;;;4890917;29;20069;-79
2023/04/21 02:09:23;;;;;;;20.85;10.35;;;7.20;99.90;;;;;;4890947;29;20082;-79
2023/04/21 02:11:50;;;;;;;17.38;10.85;;;7.10;99.90;;;;;;4860362;29;20057;-79
2023/04/21 02:14:17;;;;;;;20.10;10.25;;;7.10;99.90;;;;;;4893742;29;20578;-79
2023/04/21 02:16:43;;;;;;;24.08;10.85;;;7.10;99.90;;;;;;4878924;29;20113;-79
2023/04/21 02:19:10;;;;;;;17.42;10.40;;;7.10;99.90;;;;;;4863435;29;20502;-79
2023/04/21 02:21:37;;;;;;;17.70;10.25;;;7.10;99.90;;;;;;4879109;29;20101;-79
2023/04/21 02:24:04;;;;;;;19.73;10.88;;;7.10;99.90;;;;;;4840494;29;20053;-79
2023/04/21 02:26:30;;;;;;;19.85;10.77;;;7.10;99.90;;;;;;4860658;29;20049;-79
2023/04/21 02:28:57;;;;;;;19.88;10.27;;;7.10;99.90;;;;;;4860193;29;20076;-79
2023/04/21 02:31:24;;;;;;;19.23;10.70;;;7.00;99.90;;;;;;4875657;29;20050;-79
2023/04/21 02:33:50;;;;;;;19.92;10.70;;;7.00;99.90;;;;;;4848902;29;20566;-79
2023/04/21 02:36:17;;;;;;;25.65;10.88;;;7.00;99.90;;;;;;4878868;29;20049;-79
2023/04/21 02:38:44;;;;;;;18.17;10.05;;;7.10;99.90;;;;;;4863269;29;20050;-79
2023/04/21 02:41:10;;;;;;;16.85;10.23;;;7.00;99.90;;;;;;4878488;29;20049;-78
2023/04/21 02:43:37;;;;;;;23.45;10.82;;;7.00;99.90;;;;;;4863140;29;20049;-78
2023/04/21 02:46:08;;;;;;;19.40;10.95;;;7.00;99.90;;;;;;4893585;29;20136;-79
2023/04/21 02:48:35;;;;;;;21.58;10.98;;;6.90;99.90;;;;;;4863540;29;20044;-79
2023/04/21 02:51:03;;;;;;;19.05;10.40;;;6.90;99.90;;;;;;4878156;29;20047;-79
2023/04/21 02:53:29;;;;;;;21.80;11.05;;;6.90;99.90;;;;;;4878489;29;20521;-79
2023/04/21 02:55:56;;;;;;;21.63;11.02;;;6.90;99.90;;;;;;4874779;29;20128;-79
2023/04/21 02:58:23;;;;;;;20.42;9.95;;;7.00;99.90;;;;;;4843811;29;20518;-79
2023/04/21 03:00:50;;;;;;;18.70;10.50;;;6.90;99.90;;;;;;4859699;29;20542;-79
2023/04/21 03:03:16;;;;;;;18.27;10.57;;;6.90;99.90;;;;;;4875093;29;20045;-79
2023/04/21 03:05:43;;;;;;;18.00;10.10;;;6.90;99.90;;;;;;4862633;29;20068;-79
2023/04/21 03:08:10;;;;;;;20.38;9.98;;;6.90;99.90;;;;;;4877855;29;20041;-79
2023/04/21 03:10:37;;;;;;;18.92;10.50;;;7.00;99.90;;;;;;4878127;29;20056;-79
2023/04/21 03:13:04;;;;;;;21.10;10.70;;;7.00;99.90;;;;;;4878124;29;20057;-79
2023/04/21 03:15:31;;;;;;;16.83;9.90;;;7.00;99.90;;;;;;4877815;29;20045;-79
2023/04/21 03:17:57;;;;;;;18.63;9.48;;;7.00;99.90;;;;;;4856548;29;20046;-79
2023/04/21 03:20:24;;;;;;;19.38;9.35;;;7.00;99.90;;;;;;4844247;29;20041;-79
2023/04/21 03:22:53;;;;;;;19.48;9.98;;;7.00;99.90;;;;;;4844556;29;20102;-79
2023/04/21 03:25:19;;;;;;;18.00;9.38;;;6.90;99.90;;;;;;4858875;29;20053;-79
2023/04/21 03:27:46;;;;;;;19.85;10.25;;;7.00;99.90;;;;;;4877243;29;20495;-79
2023/04/21 03:30:13;;;;;;;16.92;9.75;;;7.00;99.90;;;;;;4862543;29;20041;-79
2023/04/21 03:32:39;;;;;;;17.60;9.35;;;7.00;99.90;;;;;;4862380;29;20049;-79
2023/04/21 03:35:06;;;;;;;15.27;9.40;;;7.00;99.90;;;;;;4877539;29;20054;-78
2023/04/21 03:37:33;;;;;;;17.00;9.73;;;7.00;99.90;;;;;;4874330;29;20065;-79
2023/04/21 03:40:00;;;;;;;16.05;9.45;;;7.00;99.90;;;;;;4858771;29;20046;-78
2023/04/21 03:42:28;;;;;;;21.73;10.13;;;7.00;99.90;;;;;;4844046;29;20046;-79
2023/04/21 03:44:55;;;;;;;16.08;10.13;;;7.10;99.90;;;;;;4859569;29;20049;-79
2023/04/21 03:47:21;;;;;;;17.92;9.85;;;7.10;99.90;;;;;;4869488;29;20048;-78
2023/04/21 03:49:48;;;;;;;19.45;9.93;;;7.10;99.90;;;;;;4877117;29;20045;-79
2023/04/21 03:52:15;;;;;;;15.23;9.38;;;7.10;99.90;;;;;;4877216;29;20084;-79
2023/04/21 03:54:41;;;;;;;18.83;9.63;;;7.10;99.90;;;;;;4892477;29;20070;-79
2023/04/21 03:57:08;;;;;;;17.67;9.90;;;7.10;99.90;;;;;;4892483;29;20119;-79
2023/04/21 03:59:35;;;;;;;18.77;9.48;;;7.10;99.90;;;;;;4877098;29;20055;-79
2023/04/21 04:02:02;;;;;;;18.58;9.27;;;7.00;99.90;;;;;;4876697;29;20070;-78
2023/04/21 04:04:28;;;;;;;16.95;9.77;;;7.00;99.90;;;;;;4892362;29;20049;-79
2023/04/21 04:06:55;;;;;;;17.05;8.95;;;7.00;99.90;;;;;;4891745;29;20109;-79
2023/04/21 04:09:22;;;;;;;15.90;9.88;;;7.00;99.90;;;;;;4891770;29;20054;-79
2023/04/21 04:11:49;;;;;;;15.35;9.40;;;7.00;99.90;;;;;;4877015;29;20056;-79
2023/04/21 04:14:16;;;;;;;14.70;8.57;;;7.10;99.90;;;;;;4876536;29;20049;-78
2023/04/21 04:16:42;;;;;;;18.13;9.48;;;7.00;99.90;;;;;;4876792;29;20045;-79
2023/04/21 04:19:09;;;;;;;18.63;9.75;;;7.00;99.90;;;;;;4876167;29;20051;-79
2023/04/21 04:21:36;;;;;;;19.65;9.45;;;7.00;99.90;;;;;;4861894;29;20101;-78
2023/04/21 04:24:04;;;;;;;20.42;10.07;;;7.00;99.90;;;;;;4861350;29;20128;-79
2023/04/21 04:26:34;;;;;;;17.33;9.52;;;7.00;99.90;;;;;;4861652;29;20078;-79
2023/04/21 04:29:01;;;;;;;16.40;9.10;;;7.00;99.90;;;;;;4873386;29;20050;-78
2023/04/21 04:31:31;;;;;;;19.10;10.10;;;7.00;99.90;;;;;;4843388;29;20076;-78
2023/04/21 04:33:58;;;;;;;15.80;8.43;;;7.00;99.90;;;;;;4858627;29;20053;-79
2023/04/21 04:36:24;;;;;;;15.23;8.85;;;7.00;99.90;;;;;;4857858;29;20045;-79
2023/04/21 04:38:51;;;;;;;15.10;8.98;;;7.00;99.90;;;;;;4880665;29;20105;-79
2023/04/21 04:41:19;;;;;;;17.05;9.30;;;7.00;99.90;;;;;;4891669;29;20042;-79
2023/04/21 04:43:46;;;;;;;15.65;8.70;;;7.00;99.90;;;;;;4876833;29;20045;-79
2023/04/21 04:46:13;;;;;;;15.13;8.95;;;7.00;99.90;;;;;;4876391;29;20045;-79
2023/04/21 04:48:39;;;;;;;15.32;8.25;;;7.00;99.90;;;;;;4876083;29;20124;-79
2023/04/21 04:51:06;;;;;;;17.15;9.05;;;7.00;99.90;;;;;;4876552;29;20049;-79
2023/04/21 04:53:33;;;;;;;15.10;8.30;;;6.90;99.90;;;;;;4876220;29;20072;-79
2023/04/21 04:56:00;;;;;;;17.23;9.20;;;7.00;99.90;;;;;;4876140;29;20046;-79
2023/04/21 04:58:26;;;;;;;17.15;8.93;;;7.00;99.90;;;;;;4860825;29;20097;-79
2023/04/21 05:00:53;;;;;;;14.23;8.40;;;7.10;99.90;;;;;;4875783;29;20053;-79
2023/04/21 05:03:20;;;;;;;17.73;8.80;;;7.10;99.90;;;;;;4876230;29;20503;-79
2023/04/21 05:05:46;;;;;;;18.50;9.07;;;7.10;99.90;;;;;;4876135;29;20436;-79
2023/04/21 05:08:14;;;;;;;17.67;9.00;;;7.10;99.90;;;;;;4875752;29;20410;-79
2023/04/21 05:10:41;;;;;;;17.00;9.20;;;7.10;99.90;;;;;;4872883;29;20046;-79
2023/04/21 05:13:07;;;;;;;15.70;8.55;;;7.10;99.90;;;;;;4857736;29;20122;-79
2023/04/21 05:15:34;;;;;;;16.30;8.63;;;7.10;99.90;;;;;;4842499;29;20506;-79
2023/04/21 05:18:01;;;;;;;19.75;9.10;;;7.10;99.90;;;;;;4872663;29;20050;-78
2023/04/21 05:20:28;;;;;;;16.17;8.23;;;7.20;99.90;;;;;;4850051;29;20040;-79
2023/04/21 05:22:54;;;;;;;19.33;9.00;;;7.20;99.90;;;;;;4876175;29;20041;-79
2023/04/21 05:25:21;;;;;;;13.93;8.10;;;7.30;99.90;;;;;;4880682;29;20045;-79
2023/04/21 05:27:48;;;;;;;16.63;7.90;;;7.30;99.90;;;;;;4875743;29;20101;-79
2023/04/21 05:30:14;;;;;;;15.55;8.00;;;7.30;99.90;;;;;;4860082;29;20048;-79
2023/04/21 05:32:41;;;;;;;19.05;9.23;;;7.40;99.90;;;;;;4875907;29;20053;-79
2023/04/21 05:35:08;;;;;;;17.83;8.52;;;7.40;99.90;;;;;;4860631;29;20057;-79
2023/04/21 05:37:35;;;;;;;21.00;8.85;;;7.50;99.90;;;;;;4860772;29;20049;-78
2023/04/21 05:40:02;;;;;;;16.83;8.50;;;7.60;99.90;;;;;;4875834;29;20073;-79
2023/04/21 05:42:28;;;;;;;19.35;8.55;;;7.60;99.90;;;;;;4875758;29;20460;-79
2023/04/21 05:44:55;;;;;;;15.25;7.93;;;7.70;99.90;;;;;;4875792;29;20160;-78
2023/04/21 05:47:22;;;;;;;17.67;7.93;;;7.70;99.90;;;;;;4860585;29;20049;-79
2023/04/21 05:49:52;;;;;;;15.68;7.95;;;7.70;99.90;;;;;;4879473;29;20052;-79
2023/04/21 05:52:22;;;;;;;14.68;8.50;;;7.80;99.90;;;;;;4901272;29;20156;-79
2023/04/21 05:54:49;;;;;;;15.70;8.15;;;7.90;99.90;;;;;;4886890;29;20042;-78
2023/04/21 05:57:16;;;;;;;16.42;8.55;;;7.90;99.90;;;;;;4858648;29;20052;-79
2023/04/21 05:59:43;;;;;;;14.13;7.85;;;8.00;99.90;;;;;;4888122;29;20541;-78
2023/04/21 06:02:10;;;;;;;18.20;7.95;;;8.00;99.90;;;;;;4885525;29;20057;-78
2023/04/21 06:04:37;;;;;;;15.18;8.48;;;8.10;99.90;;;;;;4874334;29;20052;-78
2023/04/21 06:07:09;;;;;;;19.35;8.07;;;8.20;99.90;;;;;;4880103;29;20037;-79
2023/04/21 06:09:35;;;;;;;17.75;7.68;;;8.20;99.90;;;;;;4912780;29;20088;-79
2023/04/21 06:12:02;;;;;;;21.65;8.30;;;8.30;99.90;;;;;;4877494;29;20045;-78
2023/04/21 06:14:29;;;;;;;18.23;8.15;;;8.30;99.90;;;;;;4878791;29;20061;-79
2023/04/21 06:16:56;;;;;;;17.40;8.38;;;8.40;99.90;;;;;;4873658;29;20096;-79
2023/04/21 06:19:23;;;;;;;15.10;7.65;;;8.40;99.90;;;;;;4912588;29;20053;-79
2023/04/21 06:21:49;;;;;;;16.45;7.35;;;8.50;99.90;;;;;;4912024;29;20410;-80
2023/04/21 06:24:23;;;;;;;14.70;7.75;;;8.50;99.90;;;;;;4848619;29;20455;-80
2023/04/21 06:26:51;;;;;;;16.30;7.85;;;8.60;99.90;;;;;;4878960;29;20515;-80
2023/04/21 06:29:19;;;;;;;16.73;7.72;;;8.60;99.90;;;;;;4894392;29;20053;-80
2023/04/21 06:31:45;;;;;;;12.20;7.13;;;8.70;99.90;;;;;;4864414;29;20056;-80
2023/04/21 06:34:12;;;;;;;19.48;8.18;;;8.80;99.90;;;;;;4899868;29;20045;-80
2023/04/21 06:36:39;;;;;;;15.27;8.05;;;8.90;99.90;;;;;;4881970;29;20406;-80
2023/04/21 06:39:05;;;;;;;14.35;7.60;;;8.90;99.90;;;;;;4879812;29;20050;-80
2023/04/21 06:41:32;;;;;;;19.23;7.78;;;9.00;99.90;;;;;;4856251;29;20121;-79
2023/04/21 06:43:59;;;;;;;14.07;7.53;;;9.00;99.90;;;;;;4888011;29;20042;-80
2023/04/21 06:46:26;;;;;;;15.95;7.38;;;9.10;99.90;;;;;;4885818;29;20163;-80
2023/04/21 06:48:52;;;;;;;14.63;7.93;;;9.20;99.90;;;;;;4894904;29;20496;-80
2023/04/21 06:51:19;;;;;;;13.30;6.93;;;9.30;99.90;;;;;;4878864;29;20048;-80
2023/04/21 06:53:45;;;;;;;15.23;7.68;;;9.30;99.90;;;;;;4859767;29;20129;-80
2023/04/21 06:56:12;;;;;;;13.73;7.78;;;9.40;99.90;;;;;;4845076;29;20480;-79
2023/04/21 06:58:39;;;;;;;16.92;7.82;;;9.60;99.90;;;;;;4859542;29;21164;-80
2023/04/21 07:01:05;;;;;;;15.23;7.68;;;9.60;99.90;;;;;;4845365;29;20089;-80
2023/04/21 07:03:33;;;;;;;12.45;7.50;;;9.80;99.90;;;;;;4862543;29;20480;-80
2023/04/21 07:06:00;;;;;;;17.65;7.63;;;9.80;99.90;;;;;;4873257;29;20046;-80
2023/04/21 07:08:27;;;;;;;16.98;7.57;;;9.90;99.90;;;;;;4884165;29;20119;-79
2023/04/21 07:10:53;;;;;;;12.07;7.45;;;10.00;99.90;;;;;;4881121;29;20109;-79
2023/04/21 07:13:20;;;;;;;13.55;7.47;;;10.10;99.90;;;;;;4881160;29;20045;-79
2023/04/21 07:15:47;;;;;;;16.88;7.65;;;10.20;99.90;;;;;;4868516;29;20122;-79
2023/04/21 07:18:13;;;;;;;14.82;7.35;;;10.30;99.90;;;;;;4889906;29;20041;-79
2023/04/21 07:20:40;;;;;;;15.60;7.28;;;10.40;99.90;;;;;;4885529;29;20057;-79
2023/04/21 07:23:07;;;;;;;17.27;8.25;;;10.50;99.90;;;;;;4873616;29;20045;-79
2023/04/21 07:25:33;;;;;;;14.15;7.45;;;10.60;99.90;;;;;;4887361;29;20432;-79
2023/04/21 07:28:02;;;;;;;16.38;7.28;;;10.70;99.90;;;;;;4888860;29;20041;-79
2023/04/21 07:30:29;;;;;;;15.23;7.15;;;10.80;99.90;;;;;;4904707;29;20503;-79
2023/04/21 07:32:56;;;;;;;17.17;7.13;;;11.00;99.90;;;;;;4870867;29;20432;-79
2023/04/21 07:35:23;;;;;;;18.65;7.32;;;11.00;99.90;;;;;;4886723;29;20056;-79
2023/04/21 07:37:50;;;;;;;17.63;7.18;;;11.10;99.90;;;;;;4909640;29;20576;-79
2023/04/21 07:40:17;;;;;;;15.13;7.10;;;11.30;99.90;;;;;;4880861;29;20041;-79
2023/04/21 07:42:44;;;;;;;14.07;7.28;;;11.40;99.90;;;;;;4865225;29;20041;-79
2023/04/21 07:45:11;;;;;;;18.25;7.68;;;11.50;99.90;;;;;;4892711;29;20702;-80
2023/04/21 07:47:38;;;;;;;15.07;7.50;;;11.70;99.90;;;;;;4892364;29;20052;-79
2023/04/21 07:50:05;;;;;;;15.02;7.63;;;11.80;99.90;;;;;;4862151;29;20418;-79
2023/04/21 07:52:32;;;;;;;11.23;6.65;;;11.90;99.90;;;;;;4877216;29;20057;-79
2023/04/21 07:54:58;;;;;;;18.85;7.47;;;12.00;99.90;;;;;;4879178;29;20064;-80
2023/04/21 07:57:25;;;;;;;24.90;7.25;;;12.20;99.90;;;;;;4858822;29;20065;-79
2023/04/21 07:59:52;;;;;;;17.00;7.40;;;12.20;99.90;;;;;;4851643;29;20497;-79
2023/04/21 08:02:19;;;;;;;15.43;6.85;;;12.40;99.90;;;;;;4910812;29;20558;-79
2023/04/21 08:04:45;;;;;;;14.75;6.70;;;12.50;99.90;;;;;;4880134;29;20047;-79
2023/04/21 08:07:14;;;;;;;16.17;6.95;;;12.70;99.90;;;;;;4897831;29;20517;-79
2023/04/21 08:09:40;;;;;;;12.02;7.50;;;12.70;99.90;;;;;;4861474;29;20145;-79
2023/04/21 08:12:07;;;;;;;16.15;7.13;;;12.80;99.90;;;;;;4893557;29;20089;-79
2023/04/21 08:14:34;;;;;;;17.13;6.75;;;12.90;99.90;;;;;;4861472;29;20140;-78
2023/04/21 08:17:00;;;;;;;12.82;6.38;;;13.10;99.90;;;;;;4873913;29;20050;-79
2023/04/21 08:19:27;;;;;;;12.25;7.00;;;13.20;99.90;;;;;;4843279;29;20267;-80
2023/04/21 08:21:54;;;;;;;12.60;6.85;;;13.30;99.90;;;;;;4858414;29;20046;-79
2023/04/21 08:24:21;;;;;;;14.00;6.82;;;13.40;99.90;;;;;;4892554;29;20135;-79
2023/04/21 08:26:48;;;;;;;14.93;6.90;;;13.50;99.90;;;;;;4875993;29;20045;-80
2023/04/21 08:29:15;;;;;;;12.70;6.43;;;13.60;99.90;;;;;;4865527;29;20053;-79
2023/04/21 08:31:41;;;;;;;16.30;7.00;;;13.80;99.90;;;;;;4877362;29;20055;-80
2023/04/21 08:34:08;;;;;;;19.52;6.40;;;13.90;99.90;;;;;;4894405;29;20049;-80
2023/04/21 08:36:35;;;;;;;12.30;6.18;;;13.90;99.90;;;;;;4879622;29;20052;-79
2023/04/21 08:39:02;;;;;;;15.88;6.07;;;14.00;99.90;;;;;;4891969;29;20149;-80
2023/04/21 08:41:28;;;;;;;15.05;6.70;;;14.10;99.90;;;;;;4910627;29;20045;-79
2023/04/21 08:43:55;;;;;;;14.13;6.22;;;14.20;99.90;;;;;;4910316;29;20417;-79
2023/04/21 08:46:22;;;;;;;13.63;6.40;;;14.30;99.90;;;;;;4879663;29;20128;-80
2023/04/21 08:48:49;;;;;;;17.83;6.47;;;14.40;99.90;;;;;;4880294;29;20045;-79
2023/04/21 08:51:21;;;;;;;14.25;6.47;;;14.60;99.90;;;;;;4875953;29;20131;-79
2023/04/21 08:53:48;;;;;;;15.48;6.35;;;14.60;99.90;;;;;;4890777;29;20043;-79
2023/04/21 08:56:15;;;;;;;12.98;5.88;;;14.70;99.90;;;;;;4879583;29;20052;-79
2023/04/21 08:58:42;;;;;;;13.60;6.03;;;14.80;99.90;;;;;;4882809;29;20423;-79
2023/04/21 09:01:08;;;;;;;11.32;6.00;;;14.80;99.90;;;;;;4862028;29;20049;-79
2023/04/21 09:03:35;;;;;;;17.27;6.70;;;14.90;99.90;;;;;;4886598;29;20418;-80
2023/04/21 09:06:04;;;;;;;12.48;5.75;;;15.10;99.90;;;;;;4879619;29;20084;-80
2023/04/21 09:08:32;;;;;;;16.73;6.22;;;15.20;99.90;;;;;;4903514;29;20041;-80
2023/04/21 09:11:00;;;;;;;10.10;5.90;;;15.20;99.90;;;;;;4857528;29;20419;-80
2023/04/21 09:13:32;;;;;;;13.55;6.45;;;15.30;99.90;;;;;;4881356;29;20056;-79
2023/04/21 09:16:00;;;;;;;10.93;5.57;;;15.40;99.90;;;;;;4894447;29;20467;-79
2023/04/21 09:18:34;;;;;;;12.70;6.10;;;15.60;99.90;;;;;;4877701;29;20040;-79
2023/04/21 09:21:09;;;;;;;10.60;5.28;;;15.70;99.90;;;;;;4872520;29;20046;-79
2023/04/21 09:23:41;;;;;;;18.40;5.80;;;15.90;99.90;;;;;;4880182;29;20108;-79
2023/04/21 09:26:08;;;;;;;16.38;5.90;;;15.90;99.90;;;;;;4903224;29;20057;-80
2023/04/21 09:28:35;;;;;;;11.32;5.97;;;16.00;99.90;;;;;;4878919;29;20042;-79
2023/04/21 09:31:02;;;;;;;12.68;6.30;;;16.00;99.90;;;;;;4881280;29;20498;-79
2023/04/21 09:33:33;;;;;;;17.15;6.03;;;16.10;99.90;;;;;;4883072;29;20092;-80
2023/04/21 09:36:01;;;;;;;11.93;6.38;;;16.10;99.90;;;;;;4913757;29;20509;-80
2023/04/21 09:38:28;;;;;;;16.10;6.13;;;16.20;99.90;;;;;;4914139;29;20065;-81
2023/04/21 09:40:58;;;;;;;11.38;5.70;;;16.30;99.90;;;;;;4881074;29;20050;-80
2023/04/21 09:43:25;;;;;;;11.90;5.88;;;16.40;99.90;;;;;;4864779;29;20050;-79
2023/04/21 09:45:53;;;;;;;12.48;5.88;;;16.50;99.90;;;;;;4861722;29;20046;-81
2023/04/21 09:48:23;;;;;;;12.98;5.38;;;16.60;99.90;;;;;;4868458;29;20052;-80
2023/04/21 09:50:52;;;;;;;14.95;6.13;;;16.60;99.90;;;;;;4878852;29;20045;-80
2023/04/21 09:53:28;;;;;;;16.33;5.70;;;16.70;99.90;;;;;;4895113;29;20052;-87
2023/04/21 09:55:57;;;;;;;9.80;5.85;;;16.80;99.90;;;;;;4865245;29;20049;-86
2023/04/21 09:58:30;;;;;;;9.02;5.43;;;17.00;99.90;;;;;;4880295;29;20133;-84
2023/04/21 10:00:57;;;;;;;12.07;6.50;;;17.10;99.90;;;;;;4879715;29;20053;-84
2023/04/21 10:03:27;;;;;;;12.70;5.82;;;17.20;99.90;;;;;;4895354;29;20042;-84
2023/04/21 10:05:54;;;;;;;10.23;5.43;;;17.30;99.90;;;;;;4876785;29;20050;-84
2023/04/21 10:08:21;;;;;;;11.68;5.55;;;17.40;99.90;;;;;;4864291;29;20101;-84
2023/04/21 10:10:49;;;;;;;9.00;5.47;;;17.50;99.90;;;;;;4881302;29;20513;-84
2023/04/21 10:13:17;;;;;;;11.45;5.18;;;17.60;99.90;;;;;;4875290;29;20106;-84
2023/04/21 10:15:44;;;;;;;13.63;5.40;;;17.70;99.90;;;;;;4864233;29;20148;-84
2023/04/21 10:18:15;;;;;;;11.77;5.00;;;17.90;99.90;;;;;;4864013;29;20128;-84
2023/04/21 10:21:00;;;;;;;10.55;5.30;;;18.00;99.90;;;;;;4879243;29;20137;-84
2023/04/21 10:23:31;;;;;;;9.82;5.13;;;18.10;99.90;;;;;;4879534;29;20041;-83
2023/04/21 10:26:25;;;;;;;13.77;5.18;;;18.10;99.90;;;;;;4879253;29;20491;-84
2023/04/21 10:28:53;;;;;;;11.98;5.10;;;18.20;99.90;;;;;;4886054;29;20049;-84
2023/04/21 10:31:22;;;;;;;11.20;5.07;;;18.30;99.90;;;;;;4913708;29;20052;-83
2023/04/21 10:34:07;;;;;;;11.02;5.40;;;18.30;99.90;;;;;;4897477;29;20503;-84
2023/04/21 10:36:41;;;;;;;12.38;5.32;;;18.50;99.90;;;;;;4897793;29;20486;-84
2023/04/21 10:39:11;;;;;;;8.85;5.18;;;18.50;99.90;;;;;;4913559;29;20049;-84
2023/04/21 10:41:38;;;;;;;9.38;4.53;;;18.50;99.90;;;;;;4897901;29;20048;-85
2023/04/21 10:44:12;;;;;;;8.55;4.50;;;18.60;99.90;;;;;;4884229;29;20139;-84
2023/04/21 10:46:46;;;;;;;13.70;5.83;;;18.60;99.90;;;;;;4913381;29;20497;-84
2023/04/21 10:49:27;;;;;;;14.15;4.70;;;18.70;99.90;;;;;;4883345;29;20294;-84
2023/04/21 10:52:01;;;;;;;8.23;4.00;;;18.90;99.90;;;;;;4879101;29;20087;-84
2023/04/21 10:54:40;;;;;;;14.35;4.47;;;19.00;99.90;;;;;;4875638;29;20057;-84
2023/04/21 10:57:10;;;;;;;14.75;4.82;;;19.10;99.90;;;;;;4879817;29;20495;-84
2023/04/21 10:59:37;;;;;;;11.52;4.50;;;19.10;99.90;;;;;;4881380;29;20507;-84
2023/04/21 11:02:10;;;;;;;9.00;4.20;;;19.10;99.90;;;;;;4882003;29;20041;-81
2023/04/21 11:04:43;;;;;;;9.18;4.25;;;19.20;99.90;;;;;;4869453;29;20045;-82
2023/04/21 11:07:12;;;;;;;10.50;4.05;;;19.20;99.90;;;;;;4896468;29;20049;-82
2023/04/21 11:09:40;;;;;;;10.48;4.40;;;19.20;99.90;;;;;;4889460;29;20053;-82
2023/04/21 11:12:09;;;;;;;12.90;4.40;;;19.30;99.90;;;;;;4883784;29;20041;-82
2023/04/21 11:14:38;;;;;;;10.63;4.13;;;19.30;99.90;;;;;;4894030;29;20058;-83
2023/04/21 11:17:11;;;;;;;10.45;4.18;;;19.30;99.90;;;;;;4878326;29;20105;-81
2023/04/21 11:19:38;;;;;;;11.52;4.68;;;19.20;99.90;;;;;;4910655;29;20043;-82
2023/04/21 11:22:05;;;;;;;15.68;4.28;;;19.30;99.90;;;;;;4906855;29;20474;-81
2023/04/21 11:24:32;;;;;;;9.68;4.25;;;19.30;99.90;;;;;;4870289;29;20054;-82
2023/04/21 11:27:01;;;;;;;8.75;3.90;;;19.30;99.90;;;;;;4878115;29;20045;-82
2023/04/21 11:29:28;;;;;;;11.40;3.97;;;19.40;99.90;;;;;;4893971;29;20128;-82
2023/04/21 11:31:55;;;;;;;10.07;4.15;;;19.40;99.90;;;;;;4874347;29;20106;-82
2023/04/21 11:34:24;;;;;;;10.52;4.28;;;19.40;99.90;;;;;;4881462;29;20044;-82
2023/04/21 11:36:52;;;;;;;8.75;3.95;;;19.40;99.90;;;;;;4866743;29;20053;-82
2023/04/21 11:39:20;;;;;;;13.13;4.13;;;19.40;99.90;;;;;;4870414;29;20062;-82
2023/04/21 11:41:48;;;;;;;9.85;4.20;;;19.50;99.90;;;;;;4862846;29;20482;-82
2023/04/21 11:44:34;;;;;;;11.65;4.30;;;19.60;99.60;;;;;;4862971;29;20033;-82
2023/04/21 11:47:17;;;;;;;;;;;19.60;98.60;;;;;;4900157;29;20597;-82
2023/04/21 11:49:46;;;;;;;9.10;3.90;;;19.70;98.20;;;;;;4891159;29;19927;-82
2023/04/21 11:52:23;;;;;;;7.00;3.90;;;19.80;99.50;;;;;;4911838;29;20040;-81
2023/04/21 11:54:58;;;;;;;8.88;3.47;;;19.80;99.00;;;;;;4896446;29;20052;-82
2023/04/21 11:57:26;;;;;;;8.88;3.70;;;20.00;99.10;;;;;;4896428;29;20181;-82
2023/04/21 11:59:53;;;;;;;11.93;3.70;;;20.00;99.10;;;;;;4879400;29;20061;-82
2023/04/21 12:02:25;;;;;;;11.70;4.20;;;20.10;99.00;;;;;;4862784;29;20053;-81
2023/04/21 12:05:03;;;;;;;9.35;3.90;;;20.10;99.00;;;;;;4895747;29;20406;-82
2023/04/21 12:07:32;;;;;;;8.82;3.33;;;20.10;98.10;;;;;;4896084;29;20048;-81
2023/04/21 12:10:00;;;;;;;12.43;3.83;;;20.20;98.00;;;;;;4897357;29;20053;-82
2023/04/21 12:12:27;;;;;;;8.02;3.50;;;20.00;97.40;;;;;;4877496;29;20495;-82
2023/04/21 12:14:54;;;;;;;11.27;4.07;;;20.10;97.60;;;;;;4870908;29;20048;-81
2023/04/21 12:17:20;;;;;;;8.93;3.70;;;20.00;97.70;;;;;;4895829;29;20049;-82
2023/04/21 12:19:47;;;;;;;10.20;3.40;;;19.90;97.50;;;;;;4860519;29;20041;-82
2023/04/21 12:22:18;;;;;;;8.32;3.40;;;19.80;97.50;;;;;;4880526;29;20041;-81
2023/04/21 12:24:45;;;;;;;7.43;3.35;;;19.70;96.70;;;;;;4881133;29;20041;-80
2023/04/21 12:27:13;;;;;;;9.35;3.05;;;19.80;96.40;;;;;;4880111;29;20041;-82
2023/04/21 12:29:40;;;;;;;8.88;3.53;;;19.80;96.70;;;;;;4862067;29;20056;-83
2023/04/21 12:32:08;;;;;;;7.82;2.80;;;20.00;95.40;;;;;;4862092;29;20080;-83
2023/04/21 12:34:35;;;;;;;11.20;3.10;;;20.20;96.40;;;;;;4860806;29;20045;-81
2023/04/21 12:37:02;;;;;;;9.48;3.17;;;20.20;95.00;;;;;;4876615;29;20119;-77
2023/04/21 12:39:30;;;;;;;6.70;2.63;;;20.30;94.20;;;;;;4876848;29;20053;-78
2023/04/21 12:41:56;;;;;;;9.00;3.25;;;20.40;94.10;;;;;;4876746;29;20136;-78
2023/04/21 12:44:23;;;;;;;8.65;2.88;;;20.40;93.90;;;;;;4873159;29;20141;-78
2023/04/21 12:46:50;;;;;;;10.70;2.85;;;20.30;93.20;;;;;;4873976;29;20034;-78